Dades meteomassalio
Diari Summary for Noviembre 7, 2017 Units:  Metric    English   Both
« Previous Day
Next Day »
Diari Semanal Mensual Anual Personalitzat
  Maxima: Minima: Mijana:
Temperatura: 15.6 °C 0.6 °C 8.8 °C
Rosada: 2.4 °C -10.8 °C -2 °C
Humitat: 71 % 22 % 49 %
Velocitat del vent: 48.1 km/h 0.0 km/h 24.4 km/h
Racha vent: 48.1 km/h - -
Vent:- - SW
Pressio: 1022.9 hPa 1019.9 hPa -
Pluja: 0.0 mm    
Historical Graphs
 
 
Tabular Data for Noviembre 7, 2017
Time Temperature Dew Point Pressure Wind Wind Speed Wind Gust Humidity Rainfall Rate (Hourly) solar Conditions
00:04 6.7 °C 1.4 °C 1021.6 hPa SW 24.1 km/h 24.1 km/h 69 % 0.0 mm 0.0 W/m2 CLR
00:09 6.7 °C 1.4 °C 1021.6 hPa WSW 31.5 km/h 31.5 km/h 69 % 0.0 mm 0.0 W/m2 CLR
00:14 6.7 °C 1.4 °C 1021.6 hPa SW 31.5 km/h 31.5 km/h 69 % 0.0 mm 0.0 W/m2 CLR
00:19 6.7 °C 1.4 °C 1021.6 hPa SW 29.6 km/h 29.6 km/h 69 % 0.0 mm 0.0 W/m2 CLR
00:24 6.7 °C 1.4 °C 1021.6 hPa SSW 27.8 km/h 27.8 km/h 69 % 0.0 mm 0.0 W/m2 CLR
00:29 6.7 °C 1.4 °C 1021.6 hPa WSW 31.5 km/h 31.5 km/h 69 % 0.0 mm 0.0 W/m2 CLR
00:34 6.7 °C 1.6 °C 1021.6 hPa SSW 25.9 km/h 25.9 km/h 70 % 0.0 mm 0.0 W/m2 CLR
00:39 6.7 °C 1.6 °C 1021.6 hPa SW 24.1 km/h 24.1 km/h 70 % 0.0 mm 0.0 W/m2 CLR
00:44 6.7 °C 1.6 °C 1021.6 hPa SSW 27.8 km/h 27.8 km/h 70 % 0.0 mm 0.0 W/m2 CLR
00:49 6.7 °C 1.8 °C 1021.6 hPa SSW 25.9 km/h 25.9 km/h 71 % 0.0 mm 0.0 W/m2 CLR
00:54 6.7 °C 1.8 °C 1021.6 hPa SSW 31.5 km/h 31.5 km/h 71 % 0.0 mm 0.0 W/m2 CLR
00:59 6.1 °C 1.2 °C 1021.6 hPa SW 24.1 km/h 24.1 km/h 71 % 0.0 mm 0.0 W/m2 CLR
01:04 6.7 °C 1.8 °C 1021.6 hPa SSW 27.8 km/h 27.8 km/h 71 % 0.0 mm 0.0 W/m2 CLR
01:09 6.1 °C 1.2 °C 1021.6 hPa SSW 25.7 km/h 25.7 km/h 71 % 0.0 mm 0.0 W/m2 CLR
01:14 6.1 °C 1.1 °C 1021.6 hPa SSW 25.7 km/h 25.7 km/h 70 % 0.0 mm 0.0 W/m2 CLR
01:19 6.1 °C 1.1 °C 1021.6 hPa SW 31.5 km/h 31.5 km/h 70 % 0.0 mm 0.0 W/m2 CLR
01:24 6.7 °C 1.6 °C 1021.6 hPa SSW 24.1 km/h 24.1 km/h 70 % 0.0 mm 0.0 W/m2 CLR
01:29 6.1 °C 1.1 °C 1021.6 hPa WSW 18.5 km/h 18.5 km/h 70 % 0.0 mm 0.0 W/m2 CLR
01:34 6.1 °C 1.1 °C 1021.6 hPa SSW 22.2 km/h 22.2 km/h 70 % 0.0 mm 0.0 W/m2 CLR
01:39 6.1 °C 1.1 °C 1021.6 hPa SW 22.5 km/h 22.5 km/h 70 % 0.0 mm 0.0 W/m2 CLR
01:44 6.1 °C 1.1 °C 1021.6 hPa SSW 18.5 km/h 18.5 km/h 70 % 0.0 mm 0.0 W/m2 CLR
01:49 6.1 °C 0.8 °C 1021.6 hPa SW 20.4 km/h 20.4 km/h 69 % 0.0 mm 0.0 W/m2 CLR
01:54 6.1 °C 0.8 °C 1021.6 hPa SW 25.9 km/h 25.9 km/h 69 % 0.0 mm 0.0 W/m2 CLR
01:59 5.6 °C 0.3 °C 1021.6 hPa SSW 18.5 km/h 18.5 km/h 69 % 0.0 mm 0.0 W/m2 CLR
02:04 5.6 °C 0.3 °C 1021.6 hPa SSW 20.4 km/h 20.4 km/h 69 % 0.0 mm 0.0 W/m2 CLR
02:14 6.1 °C 0.8 °C 1021.6 hPa WSW 16.7 km/h 16.7 km/h 69 % 0.0 mm 0.0 W/m2 CLR
02:19 6.1 °C 0.8 °C 1021.6 hPa SSW 20.4 km/h 20.4 km/h 69 % 0.0 mm 0.0 W/m2 CLR
02:24 6.1 °C 0.8 °C 1021.6 hPa SSW 18.5 km/h 18.5 km/h 69 % 0.0 mm 0.0 W/m2 CLR
02:29 6.1 °C 0.7 °C 1021.6 hPa SSW 22.2 km/h 22.2 km/h 68 % 0.0 mm 0.0 W/m2 CLR
02:34 5.6 °C 0.1 °C 1021.6 hPa SSW 25.9 km/h 25.9 km/h 68 % 0.0 mm 0.0 W/m2 CLR
02:39 5.6 °C -0.1 °C 1021.6 hPa SSW 24.1 km/h 24.1 km/h 67 % 0.0 mm 0.0 W/m2 CLR
02:44 5.6 °C -0.1 °C 1021.6 hPa SSW 29.6 km/h 29.6 km/h 67 % 0.0 mm 0.0 W/m2 CLR
02:49 5.6 °C -0.3 °C 1021.9 hPa SW 24.1 km/h 24.1 km/h 66 % 0.0 mm 0.0 W/m2 CLR
02:54 5.6 °C -0.3 °C 1021.6 hPa SW 20.9 km/h 20.9 km/h 66 % 0.0 mm 0.0 W/m2 CLR
02:59 5.6 °C -0.3 °C 1021.9 hPa SW 22.5 km/h 22.5 km/h 66 % 0.0 mm 0.0 W/m2 CLR
03:04 5.6 °C -0.3 °C 1021.6 hPa South 22.5 km/h 22.5 km/h 66 % 0.0 mm 0.0 W/m2 CLR
03:09 5.6 °C -0.5 °C 1021.6 hPa SW 22.2 km/h 22.2 km/h 65 % 0.0 mm 0.0 W/m2 CLR
03:14 5.6 °C -0.5 °C 1021.6 hPa SSW 22.2 km/h 22.2 km/h 65 % 0.0 mm 0.0 W/m2 CLR
03:19 5.6 °C -0.5 °C 1021.6 hPa SSW 27.8 km/h 27.8 km/h 65 % 0.0 mm 0.0 W/m2 CLR
03:24 5.6 °C -0.5 °C 1021.6 hPa South 22.2 km/h 22.2 km/h 65 % 0.0 mm 0.0 W/m2 CLR
03:29 5.6 °C -0.5 °C 1021.6 hPa SW 29.6 km/h 29.6 km/h 65 % 0.0 mm 0.0 W/m2 CLR
03:34 5.6 °C -0.7 °C 1021.6 hPa SSW 18.5 km/h 18.5 km/h 64 % 0.0 mm 0.0 W/m2 CLR
03:39 5.6 °C -0.7 °C 1021.6 hPa SSW 22.2 km/h 22.2 km/h 64 % 0.0 mm 0.0 W/m2 CLR
03:44 5.0 °C -1.3 °C 1021.6 hPa SSW 18.5 km/h 18.5 km/h 64 % 0.0 mm 0.0 W/m2 CLR
03:49 5.0 °C -1.3 °C 1021.6 hPa SSW 16.7 km/h 16.7 km/h 64 % 0.0 mm 0.0 W/m2 CLR
03:54 5.0 °C -1.3 °C 1021.6 hPa SSE 16.7 km/h 16.7 km/h 64 % 0.0 mm 0.0 W/m2 CLR
03:59 4.4 °C -1.8 °C 1021.6 hPa SSW 14.8 km/h 14.8 km/h 64 % 0.0 mm 0.0 W/m2 CLR
04:04 4.4 °C -1.8 °C 1021.6 hPa SSW 14.8 km/h 14.8 km/h 64 % 0.0 mm 0.0 W/m2 CLR
04:09 3.9 °C -2.3 °C 1021.6 hPa South 18.5 km/h 18.5 km/h 64 % 0.0 mm 0.0 W/m2 CLR
04:14 3.9 °C -2.1 °C 1021.6 hPa South 18.5 km/h 18.5 km/h 65 % 0.0 mm 0.0 W/m2 CLR
04:19 3.9 °C -2.1 °C 1021.6 hPa South 11.1 km/h 11.1 km/h 65 % 0.0 mm 0.0 W/m2 CLR
04:20 3.9 °C -2.1 °C 1021.6 hPa SSW 11.3 km/h 11.3 km/h 65 % 0.0 mm 0.0 W/m2 CLR
04:25 3.3 °C -2.4 °C 1021.6 hPa South 7.4 km/h 7.4 km/h 66 % 0.0 mm 0.0 W/m2 CLR
04:30 2.8 °C -2.6 °C 1021.6 hPa South 12.9 km/h 12.9 km/h 68 % 0.0 mm 0.0 W/m2 CLR
04:35 2.8 °C -2.6 °C 1021.6 hPa SSE 14.8 km/h 14.8 km/h 68 % 0.0 mm 0.0 W/m2 CLR
04:40 2.8 °C -2.3 °C 1021.6 hPa South 11.1 km/h 11.1 km/h 69 % 0.0 mm 0.0 W/m2 CLR
04:45 3.3 °C -1.6 °C 1021.2 hPa SSW 18.5 km/h 18.5 km/h 70 % 0.0 mm 0.0 W/m2 CLR
04:46 3.3 °C -1.6 °C 1021.2 hPa SSW 18.5 km/h 18.5 km/h 70 % 0.0 mm 0.0 W/m2 CLR
04:51 2.8 °C -2.2 °C 1021.2 hPa South 14.8 km/h 14.8 km/h 70 % 0.0 mm 0.0 W/m2 CLR
04:56 3.3 °C -1.8 °C 1021.6 hPa South 16.7 km/h 16.7 km/h 69 % 0.0 mm 0.0 W/m2 CLR
05:01 3.3 °C -1.8 °C 1021.2 hPa SSE 19.3 km/h 19.3 km/h 69 % 0.0 mm 0.0 W/m2 CLR
05:06 3.3 °C -2.0 °C 1021.6 hPa South 16.1 km/h 16.1 km/h 68 % 0.0 mm 0.0 W/m2 CLR
05:11 3.9 °C -1.7 °C 1021.6 hPa South 14.8 km/h 14.8 km/h 67 % 0.0 mm 0.0 W/m2 CLR
05:16 3.9 °C -1.9 °C 1021.6 hPa South 16.7 km/h 16.7 km/h 66 % 0.0 mm 0.0 W/m2 CLR
05:21 3.9 °C -1.9 °C 1021.6 hPa SSE 16.7 km/h 16.7 km/h 66 % 0.0 mm 0.0 W/m2 CLR
05:26 3.3 °C -2.4 °C 1021.6 hPa South 9.7 km/h 9.7 km/h 66 % 0.0 mm 0.0 W/m2 CLR
05:31 3.3 °C -2.2 °C 1021.6 hPa South 18.5 km/h 18.5 km/h 67 % 0.0 mm 0.0 W/m2 CLR
05:36 3.3 °C -2.8 °C 1021.6 hPa South 16.7 km/h 16.7 km/h 64 % 0.0 mm 0.0 W/m2 CLR
05:41 3.3 °C -2.8 °C 1021.6 hPa South 11.1 km/h 11.1 km/h 64 % 0.0 mm 0.0 W/m2 CLR
05:46 2.8 °C -3.6 °C 1021.6 hPa SSE 9.3 km/h 9.3 km/h 63 % 0.0 mm 0.0 W/m2 CLR
05:51 2.2 °C -3.9 °C 1021.6 hPa Calm     64 % 0.0 mm 0.0 W/m2 CLR
05:56 2.2 °C -3.9 °C 1021.6 hPa SW 11.1 km/h 11.1 km/h 64 % 0.0 mm 0.0 W/m2 CLR
06:01 1.7 °C -4.6 °C 1021.6 hPa SSW 14.8 km/h 14.8 km/h 63 % 0.0 mm 0.0 W/m2 CLR
06:06 1.1 °C -5.4 °C 1021.9 hPa SSW 16.7 km/h 16.7 km/h 62 % 0.0 mm 0.0 W/m2 CLR
06:11 0.6 °C -5.9 °C 1021.9 hPa SSW 16.7 km/h 16.7 km/h 62 % 0.0 mm 0.0 W/m2 CLR
06:21 0.6 °C -5.7 °C 1021.6 hPa South 18.5 km/h 18.5 km/h 63 % 0.0 mm 0.0 W/m2 CLR
06:26 1.1 °C -5.2 °C 1021.6 hPa SSW 18.5 km/h 18.5 km/h 63 % 0.0 mm 0.0 W/m2 CLR
06:31 1.7 °C -4.6 °C 1021.6 hPa SSW 16.7 km/h 16.7 km/h 63 % 0.0 mm 0.0 W/m2 CLR
06:36 2.2 °C -4.1 °C 1021.9 hPa South 16.7 km/h 16.7 km/h 63 % 0.0 mm 0.0 W/m2 CLR
06:41 2.8 °C -3.6 °C 1021.9 hPa SSW 16.7 km/h 16.7 km/h 63 % 0.0 mm 0.0 W/m2 CLR
06:46 2.8 °C -3.6 °C 1021.9 hPa South 20.4 km/h 20.4 km/h 63 % 0.0 mm 0.0 W/m2 CLR
06:51 2.8 °C -3.6 °C 1021.6 hPa South 18.5 km/h 18.5 km/h 63 % 0.0 mm 0.0 W/m2 CLR
06:56 3.3 °C -3.1 °C 1021.9 hPa SSW 16.1 km/h 16.1 km/h 63 % 0.0 mm 0.0 W/m2 CLR
07:06 3.3 °C -3.3 °C 1021.9 hPa SSE 14.8 km/h 14.8 km/h 62 % 0.0 mm 0.0 W/m2 CLR
07:11 2.8 °C -3.8 °C 1021.9 hPa South 11.1 km/h 11.1 km/h 62 % 0.0 mm 0.0 W/m2 CLR
07:16 3.3 °C -3.3 °C 1021.9 hPa SSE 14.8 km/h 14.8 km/h 62 % 0.0 mm 0.0 W/m2 CLR
07:21 3.3 °C -3.3 °C 1021.9 hPa South 16.7 km/h 16.7 km/h 62 % 0.0 mm 0.0 W/m2 CLR
07:26 3.3 °C -3.3 °C 1021.9 hPa South 18.5 km/h 18.5 km/h 62 % 0.0 mm 0.0 W/m2 CLR
07:31 2.8 °C -3.8 °C 1021.9 hPa South 25.9 km/h 25.9 km/h 62 % 0.0 mm 0.0 W/m2 OVC
07:36 3.3 °C -3.5 °C 1021.9 hPa South 20.4 km/h 20.4 km/h 61 % 0.0 mm 0.0 W/m2 OVC
07:41 3.9 °C -2.9 °C 1021.9 hPa South 18.5 km/h 18.5 km/h 61 % 0.0 mm 5.0 W/m2 OVC
07:46 3.9 °C -3.2 °C 1021.9 hPa SSE 14.8 km/h 14.8 km/h 60 % 0.0 mm 9.0 W/m2 OVC
07:51 3.9 °C -3.2 °C 1021.9 hPa South 11.1 km/h 11.1 km/h 60 % 0.0 mm 11.0 W/m2 OVC
07:56 3.9 °C -3.2 °C 1022.2 hPa South 13.0 km/h 13.0 km/h 60 % 0.0 mm 12.0 W/m2 OVC
08:01 3.9 °C -3.2 °C 1022.2 hPa South 11.1 km/h 11.1 km/h 60 % 0.0 mm 14.0 W/m2 OVC
08:06 3.9 °C -3.4 °C 1022.2 hPa SSE 7.4 km/h 7.4 km/h 59 % 0.0 mm 18.0 W/m2 OVC
08:11 4.4 °C -2.9 °C 1022.2 hPa South 19.3 km/h 19.3 km/h 59 % 0.0 mm 26.0 W/m2 OVC
08:16 4.4 °C -3.1 °C 1022.2 hPa SSE 18.5 km/h 18.5 km/h 58 % 0.0 mm 40.0 W/m2 OVC
08:21 4.4 °C -3.1 °C 1022.6 hPa SSW 11.1 km/h 11.1 km/h 58 % 0.0 mm 51.0 W/m2 OVC
08:26 3.9 °C -3.9 °C 1022.6 hPa South 18.5 km/h 18.5 km/h 57 % 0.0 mm 63.0 W/m2 OVC
08:31 4.4 °C -3.3 °C 1022.6 hPa SSE 9.3 km/h 9.3 km/h 57 % 0.0 mm 76.0 W/m2 OVC
08:36 4.4 °C -3.3 °C 1022.6 hPa South 13.0 km/h 13.0 km/h 57 % 0.0 mm 84.0 W/m2 OVC
08:41 4.4 °C -3.3 °C 1022.6 hPa SSW 13.0 km/h 13.0 km/h 57 % 0.0 mm 100.0 W/m2 BKN
08:46 5.0 °C -3.1 °C 1022.6 hPa SSW 16.7 km/h 16.7 km/h 56 % 0.0 mm 90.0 W/m2 FEW
08:51 5.0 °C -3.3 °C 1022.6 hPa South 24.1 km/h 24.1 km/h 55 % 0.0 mm 107.0 W/m2 CLR
08:56 5.0 °C -3.3 °C 1022.6 hPa South 20.4 km/h 20.4 km/h 55 % 0.0 mm 121.0 W/m2 CLR
09:01 5.6 °C -2.8 °C 1022.6 hPa SSW 16.7 km/h 16.7 km/h 55 % 0.0 mm 146.0 W/m2 CLR
09:02 5.6 °C -2.8 °C 1022.6 hPa SSW 16.7 km/h 16.7 km/h 55 % 0.0 mm 146.0 W/m2 CLR
09:07 6.1 °C -2.3 °C 1022.6 hPa SSW 18.5 km/h 18.5 km/h 55 % 0.0 mm 172.0 W/m2 CLR
09:12 6.1 °C -2.3 °C 1022.6 hPa South 18.5 km/h 18.5 km/h 55 % 0.0 mm 95.0 W/m2 CLR
09:17 6.1 °C -2.3 °C 1022.6 hPa South 16.1 km/h 16.1 km/h 55 % 0.0 mm 221.0 W/m2 CLR
09:22 6.7 °C -2.0 °C 1022.6 hPa SSW 27.4 km/h 27.4 km/h 54 % 0.0 mm 246.0 W/m2 CLR
09:27 6.7 °C -2.0 °C 1022.6 hPa South 14.8 km/h 14.8 km/h 54 % 0.0 mm 265.0 W/m2 CLR
09:32 6.7 °C -2.2 °C 1022.6 hPa SSW 29.6 km/h 29.6 km/h 53 % 0.0 mm 294.0 W/m2 CLR
09:37 6.7 °C -2.2 °C 1022.6 hPa SW 27.8 km/h 27.8 km/h 53 % 0.0 mm 329.0 W/m2 CLR
09:42 7.2 °C -1.7 °C 1022.6 hPa SW 27.8 km/h 27.8 km/h 53 % 0.0 mm 364.0 W/m2 CLR
09:47 7.2 °C -2.3 °C 1022.6 hPa SSW 35.2 km/h 35.2 km/h 51 % 0.0 mm 401.0 W/m2 CLR
09:52 7.8 °C -1.5 °C 1022.6 hPa SW 29.6 km/h 29.6 km/h 52 % 0.0 mm 320.0 W/m2 CLR
09:57 7.8 °C -1.7 °C 1022.9 hPa SW 37.0 km/h 37.0 km/h 51 % 0.0 mm 246.0 W/m2 CLR
10:02 7.8 °C -1.5 °C 1022.6 hPa South 24.1 km/h 24.1 km/h 52 % 0.0 mm 227.0 W/m2 CLR
10:07 7.8 °C -1.7 °C 1022.6 hPa SW 29.6 km/h 29.6 km/h 51 % 0.0 mm 269.0 W/m2 CLR
10:12 8.3 °C -1.5 °C 1022.6 hPa SSW 37.0 km/h 37.0 km/h 50 % 0.0 mm 334.0 W/m2 CLR
10:17 8.3 °C -1.5 °C 1022.6 hPa SSW 25.9 km/h 25.9 km/h 50 % 0.0 mm 251.0 W/m2 CLR
10:22 8.3 °C -1.2 °C 1022.6 hPa SSW 20.4 km/h 20.4 km/h 51 % 0.0 mm 295.0 W/m2 CLR
10:27 8.3 °C -1.5 °C 1022.6 hPa WSW 18.5 km/h 18.5 km/h 50 % 0.0 mm 343.0 W/m2 CLR
10:32 8.3 °C -2.1 °C 1022.9 hPa WSW 22.2 km/h 22.2 km/h 48 % 0.0 mm 461.0 W/m2 CLR
10:37 8.9 °C -1.6 °C 1022.6 hPa SW 27.4 km/h 27.4 km/h 48 % 0.0 mm 237.0 W/m2 CLR
10:42 8.9 °C -1.6 °C 1022.9 hPa SW 31.5 km/h 31.5 km/h 48 % 0.0 mm 190.0 W/m2 CLR
10:47 8.9 °C -1.6 °C 1022.6 hPa SSW 20.4 km/h 20.4 km/h 48 % 0.0 mm 236.0 W/m2 CLR
10:52 8.9 °C -1.8 °C 1022.9 hPa SSW 31.5 km/h 31.5 km/h 47 % 0.0 mm 346.0 W/m2 CLR
10:57 8.9 °C -1.8 °C 1022.6 hPa South 31.5 km/h 31.5 km/h 47 % 0.0 mm 459.0 W/m2 CLR
11:02 8.9 °C -1.8 °C 1022.6 hPa South 30.6 km/h 30.6 km/h 47 % 0.0 mm 295.0 W/m2 CLR
11:07 9.4 °C -1.3 °C 1022.6 hPa South 22.5 km/h 22.5 km/h 47 % 0.0 mm 439.0 W/m2 CLR
11:12 9.4 °C -1.6 °C 1022.6 hPa SW 20.4 km/h 20.4 km/h 46 % 0.0 mm 496.0 W/m2 CLR
11:17 10.0 °C -1.7 °C 1022.6 hPa WSW 35.2 km/h 35.2 km/h 44 % 0.0 mm 517.0 W/m2 CLR
11:22 10.6 °C -1.5 °C 1022.6 hPa SW 44.4 km/h 44.4 km/h 43 % 0.0 mm 517.0 W/m2 CLR
11:27 10.6 °C -1.5 °C 1022.6 hPa SW 40.7 km/h 40.7 km/h 43 % 0.0 mm 454.0 W/m2 CLR
11:32 10.6 °C -0.9 °C 1022.6 hPa SW 42.6 km/h 42.6 km/h 45 % 0.0 mm 519.0 W/m2 CLR
11:37 10.6 °C -0.9 °C 1022.6 hPa SSW 35.2 km/h 35.2 km/h 45 % 0.0 mm 552.0 W/m2 CLR
11:42 10.6 °C -0.6 °C 1022.6 hPa SSW 29.6 km/h 29.6 km/h 46 % 0.0 mm 485.0 W/m2 CLR
11:47 10.6 °C -0.6 °C 1022.2 hPa SW 40.7 km/h 40.7 km/h 46 % 0.0 mm 388.0 W/m2 CLR
11:52 10.6 °C -0.6 °C 1022.2 hPa SW 24.1 km/h 24.1 km/h 46 % 0.0 mm 403.0 W/m2 CLR
11:57 11.1 °C -0.1 °C 1022.2 hPa South 31.5 km/h 31.5 km/h 46 % 0.0 mm 527.0 W/m2 CLR
12:02 11.1 °C 0.2 °C 1022.2 hPa SW 18.5 km/h 18.5 km/h 47 % 0.0 mm 540.0 W/m2 CLR
12:07 11.7 °C 0.1 °C 1022.2 hPa SSW 31.5 km/h 31.5 km/h 45 % 0.0 mm 536.0 W/m2 CLR
12:12 11.7 °C 0.1 °C 1021.9 hPa SSW 29.6 km/h 29.6 km/h 45 % 0.0 mm 536.0 W/m2 CLR
12:17 11.7 °C 0.1 °C 1021.9 hPa SW 33.3 km/h 33.3 km/h 45 % 0.0 mm 543.0 W/m2 CLR
12:22 11.7 °C -0.2 °C 1021.9 hPa SW 35.2 km/h 35.2 km/h 44 % 0.0 mm 545.0 W/m2 CLR
12:27 12.2 °C 0.0 °C 1021.6 hPa SW 29.0 km/h 29.0 km/h 43 % 0.0 mm 547.0 W/m2 CLR
12:32 12.2 °C 0.3 °C 1021.6 hPa WSW 41.8 km/h 41.8 km/h 44 % 0.0 mm 548.0 W/m2 CLR
12:37 12.2 °C 0.3 °C 1021.6 hPa WSW 33.3 km/h 33.3 km/h 44 % 0.0 mm 548.0 W/m2 CLR
12:42 12.8 °C 0.8 °C 1021.6 hPa WSW 33.3 km/h 33.3 km/h 44 % 0.0 mm 550.0 W/m2 CLR
12:47 12.8 °C 0.8 °C 1021.2 hPa SW 24.1 km/h 24.1 km/h 44 % 0.0 mm 550.0 W/m2 CLR
12:52 13.3 °C 1.3 °C 1021.2 hPa SSW 22.2 km/h 22.2 km/h 44 % 0.0 mm 548.0 W/m2 CLR
12:57 13.3 °C 0.7 °C 1021.2 hPa WSW 31.5 km/h 31.5 km/h 42 % 0.0 mm 548.0 W/m2 CLR
13:07 13.3 °C -0.3 °C 1020.9 hPa SW 33.3 km/h 33.3 km/h 39 % 0.0 mm 547.0 W/m2 CLR
13:12 13.9 °C -0.2 °C 1020.9 hPa WSW 27.8 km/h 27.8 km/h 38 % 0.0 mm 543.0 W/m2 CLR
13:17 13.9 °C -0.2 °C 1020.9 hPa SW 24.1 km/h 24.1 km/h 38 % 0.0 mm 541.0 W/m2 CLR
13:22 14.4 °C -0.4 °C 1020.9 hPa West 40.2 km/h 40.2 km/h 36 % 0.0 mm 541.0 W/m2 CLR
13:27 14.4 °C -0.4 °C 1020.9 hPa SSW 25.9 km/h 25.9 km/h 36 % 0.0 mm 534.0 W/m2 CLR
13:32 14.4 °C -1.2 °C 1020.5 hPa SW 31.5 km/h 31.5 km/h 34 % 0.0 mm 531.0 W/m2 CLR
13:37 14.4 °C -0.8 °C 1020.5 hPa SW 33.3 km/h 33.3 km/h 35 % 0.0 mm 529.0 W/m2 CLR
13:42 14.4 °C -0.4 °C 1020.5 hPa SSW 27.8 km/h 27.8 km/h 36 % 0.0 mm 526.0 W/m2 CLR
13:47 14.4 °C -0.4 °C 1020.5 hPa SW 24.1 km/h 24.1 km/h 36 % 0.0 mm 520.0 W/m2 CLR
13:52 15.0 °C -0.3 °C 1020.2 hPa SSW 29.6 km/h 29.6 km/h 35 % 0.0 mm 515.0 W/m2 CLR
13:57 14.4 °C -0.8 °C 1020.2 hPa SSW 25.9 km/h 25.9 km/h 35 % 0.0 mm 508.0 W/m2 CLR
14:02 15.0 °C -0.8 °C 1020.5 hPa SW 42.6 km/h 42.6 km/h 34 % 0.0 mm 504.0 W/m2 CLR
14:07 15.0 °C -0.8 °C 1020.2 hPa SW 27.8 km/h 27.8 km/h 34 % 0.0 mm 499.0 W/m2 CLR
14:12 15.0 °C -1.2 °C 1020.2 hPa WSW 32.2 km/h 32.2 km/h 33 % 0.0 mm 490.0 W/m2 CLR
14:17 15.0 °C -1.6 °C 1020.2 hPa SSW 29.6 km/h 29.6 km/h 32 % 0.0 mm 485.0 W/m2 CLR
14:18 15.0 °C -1.6 °C 1020.2 hPa WSW 31.5 km/h 31.5 km/h 32 % 0.0 mm 483.0 W/m2 CLR
14:23 15.6 °C -2.4 °C 1020.2 hPa SSW 38.9 km/h 38.9 km/h 29 % 0.0 mm 475.0 W/m2 CLR
14:28 15.6 °C -2.9 °C 1020.2 hPa SW 25.9 km/h 25.9 km/h 28 % 0.0 mm 468.0 W/m2 CLR
14:33 15.6 °C -2.4 °C 1020.2 hPa WSW 25.7 km/h 25.7 km/h 29 % 0.0 mm 461.0 W/m2 CLR
14:38 15.6 °C -3.4 °C 1020.2 hPa SSW 24.1 km/h 24.1 km/h 27 % 0.0 mm 452.0 W/m2 CLR
14:43 15.6 °C -2.9 °C 1019.9 hPa WSW 31.5 km/h 31.5 km/h 28 % 0.0 mm 443.0 W/m2 CLR
14:48 15.6 °C -2.9 °C 1019.9 hPa SW 31.5 km/h 31.5 km/h 28 % 0.0 mm 434.0 W/m2 CLR
14:50 15.6 °C -3.4 °C 1019.9 hPa SW 27.8 km/h 27.8 km/h 27 % 0.0 mm 427.0 W/m2 CLR
14:55 15.6 °C -3.4 °C 1019.9 hPa SW 33.3 km/h 33.3 km/h 27 % 0.0 mm 420.0 W/m2 CLR
15:00 15.0 °C -3.9 °C 1019.9 hPa SW 27.8 km/h 27.8 km/h 27 % 0.0 mm 410.0 W/m2 CLR
15:05 15.6 °C -3.9 °C 1019.9 hPa WSW 27.8 km/h 27.8 km/h 26 % 0.0 mm 401.0 W/m2 CLR
15:15 15.6 °C -4.4 °C 1019.9 hPa SW 35.2 km/h 35.2 km/h 25 % 0.0 mm 380.0 W/m2 CLR
15:20 15.6 °C -4.9 °C 1019.9 hPa SSW 29.6 km/h 29.6 km/h 24 % 0.0 mm 369.0 W/m2 CLR
15:25 15.6 °C -4.9 °C 1019.9 hPa SW 24.1 km/h 24.1 km/h 24 % 0.0 mm 359.0 W/m2 CLR
15:30 15.6 °C -4.9 °C 1019.9 hPa West 27.8 km/h 27.8 km/h 24 % 0.0 mm 346.0 W/m2 CLR
15:35 15.6 °C -4.9 °C 1019.9 hPa West 40.2 km/h 40.2 km/h 24 % 0.0 mm 338.0 W/m2 CLR
15:40 15.6 °C -5.6 °C 1019.9 hPa SSW 31.5 km/h 31.5 km/h 23 % 0.0 mm 320.0 W/m2 CLR
15:45 15.6 °C -5.6 °C 1019.9 hPa WSW 25.9 km/h 25.9 km/h 23 % 0.0 mm 309.0 W/m2 CLR
15:50 15.6 °C -5.6 °C 1019.9 hPa SW 33.3 km/h 33.3 km/h 23 % 0.0 mm 297.0 W/m2 CLR
15:55 15.6 °C -6.1 °C 1019.9 hPa SSW 24.1 km/h 24.1 km/h 22 % 0.0 mm 283.0 W/m2 CLR
16:00 15.6 °C -6.1 °C 1019.9 hPa SW 18.5 km/h 18.5 km/h 22 % 0.0 mm 267.0 W/m2 CLR
16:05 15.0 °C -6.0 °C 1019.9 hPa SW 18.5 km/h 18.5 km/h 23 % 0.0 mm 251.0 W/m2 CLR
16:10 15.0 °C -4.4 °C 1019.9 hPa SW 19.3 km/h 19.3 km/h 26 % 0.0 mm 239.0 W/m2 CLR
16:15 15.0 °C -4.4 °C 1019.9 hPa SW 20.4 km/h 20.4 km/h 26 % 0.0 mm 221.0 W/m2 CLR
16:20 15.0 °C -4.9 °C 1019.9 hPa WSW 20.9 km/h 20.9 km/h 25 % 0.0 mm 206.0 W/m2 CLR
16:25 14.4 °C -4.3 °C 1019.9 hPa WSW 22.2 km/h 22.2 km/h 27 % 0.0 mm 186.0 W/m2 CLR
16:30 14.4 °C -4.3 °C 1019.9 hPa West 20.4 km/h 20.4 km/h 27 % 0.0 mm 167.0 W/m2 CLR
16:35 13.9 °C -4.8 °C 1019.9 hPa WSW 27.8 km/h 27.8 km/h 27 % 0.0 mm 151.0 W/m2 CLR
16:40 13.9 °C -4.3 °C 1019.9 hPa WSW 22.2 km/h 22.2 km/h 28 % 0.0 mm 132.0 W/m2 CLR
16:45 13.9 °C -4.3 °C 1019.9 hPa WSW 22.2 km/h 22.2 km/h 28 % 0.0 mm 116.0 W/m2 CLR
16:50 13.9 °C -4.3 °C 1019.9 hPa WSW 24.1 km/h 24.1 km/h 28 % 0.0 mm 102.0 W/m2 CLR
16:55 13.3 °C -4.8 °C 1019.9 hPa WSW 24.1 km/h 24.1 km/h 28 % 0.0 mm 76.0 W/m2 FEW
17:00 13.3 °C -4.8 °C 1019.9 hPa SW 29.6 km/h 29.6 km/h 28 % 0.0 mm 56.0 W/m2 SCT
17:05 13.3 °C -4.3 °C 1019.9 hPa West 14.8 km/h 14.8 km/h 29 % 0.0 mm 54.0 W/m2 SCT
17:10 12.8 °C -4.8 °C 1019.9 hPa SW 18.5 km/h 18.5 km/h 29 % 0.0 mm 44.0 W/m2 BKN
17:15 12.8 °C -4.4 °C 1019.9 hPa WSW 16.7 km/h 16.7 km/h 30 % 0.0 mm 33.0 W/m2 BKN
17:20 12.8 °C -4.8 °C 1019.9 hPa SW 17.7 km/h 17.7 km/h 29 % 0.0 mm 21.0 W/m2 BKN
17:25 12.8 °C -4.4 °C 1019.9 hPa SW 14.8 km/h 14.8 km/h 30 % 0.0 mm 16.0 W/m2 BKN
17:30 12.2 °C -4.9 °C 1019.9 hPa SW 5.6 km/h 5.6 km/h 30 % 0.0 mm 12.0 W/m2 BKN
17:35 11.7 °C -4.9 °C 1019.9 hPa Calm     31 % 0.0 mm 11.0 W/m2 BKN
17:40 10.6 °C -5.9 °C 1019.9 hPa Calm     31 % 0.0 mm 9.0 W/m2 BKN
17:45 9.4 °C -6.9 °C 1019.9 hPa Calm     31 % 0.0 mm 7.0 W/m2 BKN
17:50 8.9 °C -6.9 °C 1019.9 hPa Calm     32 % 0.0 mm 0.0 W/m2 OVC
17:55 8.3 °C -7.1 °C 1019.9 hPa Calm     33 % 0.0 mm 0.0 W/m2 OVC
18:00 7.8 °C -7.1 °C 1020.2 hPa SSW 13.0 km/h 13.0 km/h 34 % 0.0 mm 0.0 W/m2 CLR
18:05 7.2 °C -8.0 °C 1020.2 hPa SSW 9.7 km/h 9.7 km/h 33 % 0.0 mm 0.0 W/m2 CLR
18:10 6.7 °C -8.5 °C 1020.2 hPa South 7.4 km/h 7.4 km/h 33 % 0.0 mm 0.0 W/m2 CLR
18:15 6.7 °C -8.5 °C 1020.2 hPa South 11.1 km/h 11.1 km/h 33 % 0.0 mm 0.0 W/m2 CLR
18:20 6.1 °C -9.0 °C 1020.5 hPa South 11.3 km/h 11.3 km/h 33 % 0.0 mm 0.0 W/m2 CLR
18:25 6.1 °C -9.0 °C 1020.5 hPa South 11.1 km/h 11.1 km/h 33 % 0.0 mm 0.0 W/m2 CLR
18:30 5.6 °C -9.5 °C 1020.5 hPa South 9.3 km/h 9.3 km/h 33 % 0.0 mm 0.0 W/m2 CLR
18:35 5.6 °C -9.5 °C 1020.5 hPa South 11.3 km/h 11.3 km/h 33 % 0.0 mm 0.0 W/m2 CLR
18:40 5.6 °C -9.5 °C 1020.5 hPa South 11.1 km/h 11.1 km/h 33 % 0.0 mm 0.0 W/m2 CLR
18:45 5.0 °C -9.9 °C 1020.5 hPa SSW 7.4 km/h 7.4 km/h 33 % 0.0 mm 0.0 W/m2 CLR
18:50 5.0 °C -9.9 °C 1020.5 hPa SSW 14.8 km/h 14.8 km/h 33 % 0.0 mm 0.0 W/m2 CLR
18:55 4.4 °C -10.4 °C 1020.5 hPa South 14.8 km/h 14.8 km/h 33 % 0.0 mm 0.0 W/m2 CLR
19:00 4.4 °C -10.8 °C 1020.9 hPa South 24.1 km/h 24.1 km/h 32 % 0.0 mm 0.0 W/m2 CLR
19:05 5.6 °C -10.3 °C 1020.9 hPa SSW 20.9 km/h 20.9 km/h 31 % 0.0 mm 0.0 W/m2 CLR
19:10 6.7 °C -9.3 °C 1020.9 hPa SSW 22.2 km/h 22.2 km/h 31 % 0.0 mm 0.0 W/m2 CLR
19:16 9.4 °C -6.4 °C 1020.9 hPa SW 24.1 km/h 24.1 km/h 32 % 0.0 mm 0.0 W/m2 CLR
19:21 10.6 °C -4.7 °C 1020.9 hPa SW 27.8 km/h 27.8 km/h 34 % 0.0 mm 0.0 W/m2 CLR
19:25 11.1 °C -4.2 °C 1020.9 hPa SSW 25.9 km/h 25.9 km/h 34 % 0.0 mm 0.0 W/m2 CLR
19:31 11.1 °C -3.8 °C 1020.9 hPa SW 24.1 km/h 24.1 km/h 35 % 0.0 mm 0.0 W/m2 CLR
19:35 11.1 °C -3.8 °C 1020.9 hPa SW 22.2 km/h 22.2 km/h 35 % 0.0 mm 0.0 W/m2 CLR
19:40 11.1 °C -3.4 °C 1020.9 hPa SSW 27.8 km/h 27.8 km/h 36 % 0.0 mm 0.0 W/m2 CLR
19:46 11.1 °C -3.1 °C 1020.9 hPa SW 20.4 km/h 20.4 km/h 37 % 0.0 mm 0.0 W/m2 CLR
19:51 11.1 °C -2.3 °C 1020.5 hPa NW 29.6 km/h 29.6 km/h 39 % 0.0 mm 0.0 W/m2 CLR
19:56 11.7 °C -1.5 °C 1020.5 hPa NW 27.8 km/h 27.8 km/h 40 % 0.0 mm 0.0 W/m2 CLR
20:01 11.1 °C -1.3 °C 1020.9 hPa NW 27.8 km/h 27.8 km/h 42 % 0.0 mm 0.0 W/m2 CLR
20:06 11.1 °C -1.0 °C 1020.9 hPa NNW 22.2 km/h 22.2 km/h 43 % 0.0 mm 0.0 W/m2 CLR
20:11 11.1 °C -0.7 °C 1020.9 hPa NW 24.1 km/h 24.1 km/h 44 % 0.0 mm 0.0 W/m2 CLR
20:16 11.1 °C -0.4 °C 1020.9 hPa NNW 27.8 km/h 27.8 km/h 45 % 0.0 mm 0.0 W/m2 CLR
20:21 11.1 °C -0.4 °C 1020.9 hPa NW 31.5 km/h 31.5 km/h 45 % 0.0 mm 0.0 W/m2 CLR
20:26 11.1 °C -0.1 °C 1020.9 hPa NW 22.2 km/h 22.2 km/h 46 % 0.0 mm 0.0 W/m2 CLR
20:31 11.1 °C -0.1 °C 1021.2 hPa NNW 29.6 km/h 29.6 km/h 46 % 0.0 mm 0.0 W/m2 CLR
20:36 11.1 °C -0.1 °C 1021.2 hPa NW 35.2 km/h 35.2 km/h 46 % 0.0 mm 0.0 W/m2 CLR
20:41 11.7 °C 0.4 °C 1021.2 hPa NNW 37.0 km/h 37.0 km/h 46 % 0.0 mm 0.0 W/m2 CLR
20:46 11.7 °C 0.4 °C 1021.2 hPa NNW 37.0 km/h 37.0 km/h 46 % 0.0 mm 0.0 W/m2 CLR
20:51 12.2 °C 0.9 °C 1021.2 hPa North 35.2 km/h 35.2 km/h 46 % 0.0 mm 0.0 W/m2 CLR
20:56 11.7 °C 0.1 °C 1021.6 hPa NNW 25.9 km/h 25.9 km/h 45 % 0.0 mm 0.0 W/m2 CLR
21:01 11.7 °C 0.1 °C 1021.2 hPa North 32.2 km/h 32.2 km/h 45 % 0.0 mm 0.0 W/m2 CLR
21:06 11.7 °C 0.1 °C 1021.6 hPa NW 31.5 km/h 31.5 km/h 45 % 0.0 mm 0.0 W/m2 CLR
21:11 11.7 °C 0.1 °C 1021.6 hPa North 27.8 km/h 27.8 km/h 45 % 0.0 mm 0.0 W/m2 CLR
21:16 12.2 °C 0.6 °C 1021.6 hPa NNW 46.3 km/h 46.3 km/h 45 % 0.0 mm 0.0 W/m2 CLR
21:21 12.2 °C 0.6 °C 1021.6 hPa NNW 37.0 km/h 37.0 km/h 45 % 0.0 mm 0.0 W/m2 CLR
21:26 11.7 °C -0.2 °C 1021.6 hPa NNW 42.6 km/h 42.6 km/h 44 % 0.0 mm 0.0 W/m2 CLR
21:31 11.7 °C -0.2 °C 1021.6 hPa NNW 40.7 km/h 40.7 km/h 44 % 0.0 mm 0.0 W/m2 CLR
21:36 11.7 °C 0.1 °C 1021.2 hPa NNW 37.0 km/h 37.0 km/h 45 % 0.0 mm 0.0 W/m2 CLR
21:41 11.7 °C 0.1 °C 1021.2 hPa NW 37.0 km/h 37.0 km/h 45 % 0.0 mm 0.0 W/m2 CLR
21:46 11.7 °C 0.4 °C 1021.2 hPa NNW 35.2 km/h 35.2 km/h 46 % 0.0 mm 0.0 W/m2 CLR
21:51 11.7 °C 0.7 °C 1021.6 hPa NW 48.1 km/h 48.1 km/h 47 % 0.0 mm 0.0 W/m2 CLR
21:56 11.7 °C 1.0 °C 1021.6 hPa WNW 35.2 km/h 35.2 km/h 48 % 0.0 mm 0.0 W/m2 CLR
22:01 11.1 °C 0.5 °C 1021.6 hPa NW 44.4 km/h 44.4 km/h 48 % 0.0 mm 0.0 W/m2 CLR
22:06 11.1 °C 0.8 °C 1021.6 hPa North 35.2 km/h 35.2 km/h 49 % 0.0 mm 0.0 W/m2 CLR
22:11 11.1 °C 0.5 °C 1021.6 hPa NNW 42.6 km/h 42.6 km/h 48 % 0.0 mm 0.0 W/m2 CLR
22:16 11.1 °C 0.8 °C 1021.2 hPa NW 37.0 km/h 37.0 km/h 49 % 0.0 mm 0.0 W/m2 CLR
22:21 11.1 °C 0.8 °C 1021.6 hPa NW 35.2 km/h 35.2 km/h 49 % 0.0 mm 0.0 W/m2 CLR
22:26 11.1 °C 1.1 °C 1021.6 hPa NW 44.4 km/h 44.4 km/h 50 % 0.0 mm 0.0 W/m2 CLR
22:31 11.1 °C 0.8 °C 1021.6 hPa NW 48.1 km/h 48.1 km/h 49 % 0.0 mm 0.0 W/m2 CLR
22:32 11.1 °C 0.8 °C 1021.6 hPa NW 48.1 km/h 48.1 km/h 49 % 0.0 mm 0.0 W/m2 CLR
22:37 11.1 °C 0.8 °C 1021.6 hPa NW 42.6 km/h 42.6 km/h 49 % 0.0 mm 0.0 W/m2 CLR
22:42 11.1 °C 1.1 °C 1021.6 hPa NW 33.3 km/h 33.3 km/h 50 % 0.0 mm 0.0 W/m2 CLR
22:47 11.1 °C 1.1 °C 1021.6 hPa NW 42.6 km/h 42.6 km/h 50 % 0.0 mm 0.0 W/m2 CLR
22:52 11.1 °C 1.1 °C 1021.6 hPa NW 35.2 km/h 35.2 km/h 50 % 0.0 mm 0.0 W/m2 CLR
22:57 11.1 °C 1.1 °C 1021.6 hPa NW 35.2 km/h 35.2 km/h 50 % 0.0 mm 0.0 W/m2 CLR
23:02 11.1 °C 1.3 °C 1021.6 hPa NNW 40.7 km/h 40.7 km/h 51 % 0.0 mm 0.0 W/m2 CLR
23:07 11.1 °C 1.3 °C 1021.6 hPa NW 35.2 km/h 35.2 km/h 51 % 0.0 mm 0.0 W/m2 CLR
23:12 11.1 °C 1.6 °C 1021.6 hPa NW 31.5 km/h 31.5 km/h 52 % 0.0 mm 0.0 W/m2 CLR
23:17 11.1 °C 1.9 °C 1021.6 hPa NNW 35.2 km/h 35.2 km/h 53 % 0.0 mm 0.0 W/m2 CLR
23:22 11.1 °C 2.2 °C 1021.6 hPa NW 35.4 km/h 35.4 km/h 54 % 0.0 mm 0.0 W/m2 CLR
23:27 10.6 °C 1.9 °C 1021.6 hPa NW 31.5 km/h 31.5 km/h 55 % 0.0 mm 0.0 W/m2 CLR
23:32 10.6 °C 1.9 °C 1021.9 hPa NW 31.5 km/h 31.5 km/h 55 % 0.0 mm 0.0 W/m2 CLR
23:37 10.6 °C 1.9 °C 1021.6 hPa NNW 41.8 km/h 41.8 km/h 55 % 0.0 mm 0.0 W/m2 CLR
23:42 10.6 °C 2.1 °C 1021.9 hPa NW 32.2 km/h 32.2 km/h 56 % 0.0 mm 0.0 W/m2 CLR
23:47 10.6 °C 2.4 °C 1021.6 hPa North 37.0 km/h 37.0 km/h 57 % 0.0 mm 0.0 W/m2 CLR
23:52 10.6 °C 2.4 °C 1021.6 hPa NW 29.6 km/h 29.6 km/h 57 % 0.0 mm 0.0 W/m2 CLR
23:57 10.6 °C 2.4 °C 1021.6 hPa NNW 29.6 km/h 29.6 km/h 57 % 0.0 mm 0.0 W/m2 CLR
Lo Temps de Massalio
Compliments of Weather Underground - 1.25 mb